Kane, IL (62054)

11:23 AM CDT on August 31, 2016 (GMT -0500)
North Jerseyville | | Change Station

Elev 558 ft 39.15 °N, 90.32 °W | Updated 18 seconds ago

Scattered Clouds
Scattered Clouds
79.5 °F
Feels Like 84 °F
N
3.4
Wind Variable Wind from North
Gusts 4.9 mph

Today
High -- | Low -- °F
--% Chance of Precip.
Yesterday
High -- | Low -- °F
Precip. -- in
Pressure 30.06 in
Visibility 10.0 miles
Clouds Scattered Clouds 900 ft
Heat Index 84 °F
Dew Point 74 °F
Humidity 83%
Rainfall 0.00 in
Snow Depth Not available.
6:29 AM 7:32 PM
Waning Crescent, 1% visible
SPECI KSET 311621Z AUTO 30003KT 10SM SCT009 27/24 A3006 RMK AO2 T02670239
Pressure 30.06 in
Visibility 10.0 miles
Clouds Scattered Clouds 900 ft
Heat Index 84 °F
Dew Point 74 °F
Humidity 83%
Rainfall 0.00 in
Snow Depth Not available.
6:29 AM 7:32 PM
Waning Crescent, 1% visible
SPECI KSET 311621Z AUTO 30003KT 10SM SCT009 27/24 A3006 RMK AO2 T02670239

10-Day Weather Forecast

Almanac

Astronomy

Aug. 31, 2016 Rise Set
Actual Time
Civil Twilight
Nautical Twilight
Astronomical Twilight
Moon
Length of Visible Light
Length of Day
Tomorrow will be .
, % of the Moon is Illuminated

Today's Extremes

State Highs State Lows

Community

WunderPhotos

Upload Photos

1,936,109 photos uploaded!

WunderBlog® & News

Nearby

Air Quality

  Air Quality AQ Index Pollutant
Not available.

Snow Depth

Station Depth Elevation

Earthquake Activity

City Distance Mag. Time & Date
Minimum magnitude displayed is 2.5.

Coastal Water Temperatures

Place Temperature

Stations

Nearby Weather Stations

Station Location Temp. Windchill Dew Point Humidity Wind Precip. Elev Updated Type
                   

Watches & Warnings

There are currently no watches in effect.